Buckeye, Texas
Current Conditions -  °F | °C
As of 10:53 AM on Saturday 22 Nov 2014 (Local Time) from KLBX Reporting Station
Broken Clouds Broken Clouds  
Wind Chill: 66°   Ceiling: 11000
Heat Index: 66°   Visibility: 10mi
Dew Point: 66°   Wind: 8mph
Humidity: 100%   Direction: 130°SE
Pressure: 30.02"   Gusts: NA
Location:  28.8997°N, 95.7887°W
Report Text: KLBX 221653Z AUTO 13007KT 10SM FEW037 BKN110 19/19 A3002 RMK AO2 RAE53 SLP164 P0003 T01890189
Loading
Personal Weather Stations






























Interactive Weather Map New forecast layout! Learn more

10-Day Weather Forecast

Advertisements
Track Severe Weather on mobile